Terminal Aerodrome Forecast
Issued by NWS

Home | Current Version | Previous Version | Text Only | Print | Product List | Glossary On
Versions: 1 2 3 4 5 6 7 8 9 10 11 12 13 14
000
FTUS46 KPDT 211100
TAFBDN
TAF
KBDN 211120Z 2112/2212 21005KT P6SM BKN110
     FM211500 VRB06KT P6SM OVC070
     FM212200 33010KT P6SM -SHRA OVC050
     FM220100 33009KT P6SM -RA OVC035
     FM220600 29007KT P6SM -RA OVC020=

USA.gov is the U.S. government's official web portal to all federal, state and local government web resources and services.